首页
METAR-TAF:

METAR-TAF

机场 :

斯波坎国际机场

斯波坎, 华盛顿, 美国

纬度: 47-37-17N, 经度: 117-31-40W, 海拔: 723米

当前天气观测

该预报发布于23分钟前的12:53 UTC
风速8节,风向东南
温度 17°C
湿度 52%
气压 1014 hPa
能見度: 16.1公里
少量云层高于9000英尺
少量云层高于25000英尺

METAR: KGEG 161253Z 14008KT 10SM FEW090 FEW250 17/07 A2995 RMK AO2 SLP124 T01720067

时间: 06:16 (13:16 UTC)

预报

该预报发布于1小时和54分钟前的11:22 UTC
预报有效从16日的 12点(UTC)到 17日的 12点(UTC)
风速6节,风向东南
能見度: 10公里
少量云层高于10000英尺
从 16日的 1700点(UTC)
风速8节,风向
能見度: 10公里
散云层高于25000英尺
从 16日的 2000点(UTC)
风速15节,风向西南,有时为22节阵风
能見度: 10公里
散云层高于20000英尺
从 17日的 0300点(UTC)
风速10节,风向西转西南
能見度: 10公里
散云层高于15000英尺
多云层高于20000英尺

TAF: KGEG 161122Z 1612/1712 14006KT P6SM FEW100 FM161700 19008KT P6SM SCT250 FM162000 22015G22KT P6SM SCT200 FM170300 24010KT P6SM SCT150 BKN200

超过4000个机场的气象观测和天气预报(METAR&TAF报告)。

可查询的气象台以黄色和红色小点在地图上表示。

将鼠标移到小点上方,可查看气象台名称。

然后点击查看天气观测和预报。

如需切换地图:点击带黑十字的绿色按钮放大地图;点击带横线的绿色按钮缩小地图;或者点击绿色箭头查看邻近地区的地图。


METAR-TAF: